createdAt,value
2019-03-28T00:03:43.005Z,36.30
2019-03-28T00:07:47.909Z,37.47
2019-03-28T00:11:52.815Z,41.47
2019-03-28T00:15:58.266Z,37.77
2019-03-28T00:20:04.239Z,41.77
2019-03-28T00:24:11.838Z,37.27
2019-03-28T00:28:16.753Z,36.97
2019-03-28T00:32:21.660Z,34.80
2019-03-28T00:36:26.565Z,32.80
2019-03-28T00:40:31.467Z,34.80
2019-03-28T00:44:36.359Z,41.50
2019-03-28T00:48:41.265Z,42.90
2019-03-28T00:52:46.163Z,37.57
2019-03-28T00:56:52.053Z,34.43
2019-03-28T01:00:56.964Z,35.67
2019-03-28T01:05:01.874Z,33.77
2019-03-28T01:09:07.478Z,41.20
2019-03-28T01:13:12.381Z,34.47
2019-03-28T01:17:17.290Z,33.10
2019-03-28T01:21:22.201Z,34.73
2019-03-28T01:25:27.545Z,32.33
2019-03-28T01:29:32.583Z,32.47
2019-03-28T01:33:37.492Z,33.60
2019-03-28T01:37:42.403Z,36.27
2019-03-28T01:41:47.312Z,33.10
2019-03-28T01:45:52.212Z,40.00
2019-03-28T01:49:57.109Z,33.47
2019-03-28T01:54:02.017Z,36.37
2019-03-28T01:58:06.924Z,35.97
2019-03-28T02:02:11.831Z,32.20
2019-03-28T02:06:16.807Z,28.00
2019-03-28T02:10:21.712Z,27.90
2019-03-28T02:14:26.601Z,37.43
2019-03-28T02:18:31.508Z,35.90
2019-03-28T02:22:36.684Z,35.57
2019-03-28T02:26:41.599Z,38.23
2019-03-28T02:30:46.495Z,40.10
2019-03-28T02:34:52.460Z,35.77
2019-03-28T02:38:58.581Z,35.70
2019-03-28T02:43:03.647Z,36.20
2019-03-28T02:47:09.521Z,35.27
2019-03-28T02:51:14.496Z,33.87
2019-03-28T02:55:19.403Z,35.30
2019-03-28T02:59:24.323Z,32.30
2019-03-28T03:03:29.230Z,35.93
2019-03-28T03:07:34.134Z,33.87
2019-03-28T03:11:42.567Z,33.70
2019-03-28T03:15:45.652Z,30.60
2019-03-28T03:19:51.413Z,32.90
2019-03-28T03:23:56.452Z,30.17
2019-03-28T03:28:01.344Z,32.30
2019-03-28T03:32:06.263Z,31.60
2019-03-28T03:36:11.165Z,29.97
2019-03-28T03:40:16.495Z,28.77
2019-03-28T03:44:21.399Z,29.33
2019-03-28T03:48:26.301Z,28.67
2019-03-28T03:52:31.202Z,31.50
2019-03-28T03:56:36.112Z,32.07
2019-03-28T04:00:41.005Z,36.50
2019-03-28T04:04:45.909Z,31.03
2019-03-28T04:08:50.822Z,33.10
2019-03-28T04:12:55.720Z,27.70
2019-03-28T04:17:00.630Z,30.67
2019-03-28T04:21:05.590Z,32.73
2019-03-28T04:25:10.440Z,32.77
2019-03-28T04:29:15.343Z,29.50
2019-03-28T04:33:20.245Z,30.17
2019-03-28T04:37:25.149Z,28.17
2019-03-28T04:41:30.048Z,27.27
2019-03-28T04:45:34.945Z,31.40
2019-03-28T04:49:39.854Z,29.20
2019-03-28T04:53:44.759Z,28.60
2019-03-28T04:57:49.667Z,29.10
2019-03-28T05:02:02.843Z,31.53
2019-03-28T05:06:01.180Z,30.33
2019-03-28T05:10:10.275Z,32.00
2019-03-28T05:14:15.178Z,34.43
2019-03-28T05:18:20.076Z,32.17
2019-03-28T05:22:24.981Z,28.47
2019-03-28T05:26:29.883Z,31.20
2019-03-28T05:30:34.777Z,31.03
2019-03-28T05:34:39.684Z,32.00
2019-03-28T05:38:44.590Z,32.70
2019-03-28T05:42:49.502Z,27.97
2019-03-28T05:46:54.430Z,28.70
2019-03-28T05:50:59.329Z,30.47
2019-03-28T05:55:05.648Z,29.20
2019-03-28T05:59:11.432Z,30.77
2019-03-28T06:03:16.579Z,28.37
2019-03-28T06:07:21.485Z,33.23
2019-03-28T06:11:26.389Z,29.10
2019-03-28T06:15:31.288Z,37.60
2019-03-28T06:19:36.196Z,34.93
2019-03-28T06:23:41.115Z,31.67
2019-03-28T06:27:46.026Z,29.47
2019-03-28T06:31:55.635Z,36.93
2019-03-28T06:35:57.514Z,33.37
2019-03-28T06:40:02.421Z,43.13
2019-03-28T06:44:07.330Z,35.47
2019-03-28T06:48:12.232Z,33.20
2019-03-28T06:52:17.136Z,46.83
2019-03-28T06:56:22.033Z,45.37
2019-03-28T07:00:26.945Z,71.63
2019-03-28T07:04:31.846Z,53.43
2019-03-28T07:08:36.747Z,54.63
2019-03-28T07:12:41.660Z,60.57
2019-03-28T07:16:46.567Z,54.13
2019-03-28T07:20:52.352Z,40.20
2019-03-28T07:24:57.349Z,38.17
2019-03-28T07:29:02.261Z,38.77
2019-03-28T07:33:07.169Z,36.67
2019-03-28T07:37:12.594Z,37.90
2019-03-28T07:41:17.713Z,38.47
2019-03-28T07:45:22.685Z,49.80
2019-03-28T07:49:27.603Z,50.43
2019-03-28T07:53:32.511Z,55.57
2019-03-28T07:57:38.496Z,44.47
2019-03-28T08:01:43.396Z,39.00
2019-03-28T08:05:48.314Z,36.93
2019-03-28T08:09:53.237Z,44.13
2019-03-28T08:13:58.141Z,40.87
2019-03-28T08:18:03.113Z,39.20
2019-03-28T08:22:08.105Z,37.10
2019-03-28T08:26:13.077Z,45.80
2019-03-28T08:30:21.040Z,34.90
2019-03-28T08:34:26.192Z,26.00
2019-03-28T08:38:32.755Z,27.87
2019-03-28T08:42:37.829Z,25.60
2019-03-28T08:46:42.732Z,26.20
2019-03-28T08:50:47.652Z,25.60
2019-03-28T08:54:52.567Z,25.37
2019-03-28T08:58:57.492Z,24.30
2019-03-28T09:03:02.422Z,21.30
2019-03-28T09:07:07.307Z,20.03
2019-03-28T09:11:12.223Z,19.87
2019-03-28T09:15:18.036Z,21.50
2019-03-28T09:19:22.948Z,18.93
2019-03-28T09:23:27.874Z,20.60
2019-03-28T09:27:32.785Z,22.37
2019-03-28T09:31:37.758Z,20.50
2019-03-28T09:35:42.817Z,23.37
2019-03-28T09:39:47.860Z,23.53
2019-03-28T09:43:55.621Z,24.07
2019-03-28T09:47:59.383Z,21.83
2019-03-28T09:52:04.283Z,25.10
2019-03-28T09:56:09.190Z,29.10
2019-03-28T10:00:15.449Z,30.13
2019-03-28T10:04:20.364Z,26.00
2019-03-28T10:08:25.285Z,23.13
2019-03-28T10:12:30.184Z,24.70
2019-03-28T10:16:35.680Z,27.63
2019-03-28T10:20:40.782Z,25.63
2019-03-28T10:24:45.691Z,24.00
2019-03-28T10:28:50.608Z,21.47
2019-03-28T10:32:55.506Z,22.83
2019-03-28T10:37:00.423Z,20.13
2019-03-28T10:41:05.334Z,15.20
2019-03-28T10:45:10.680Z,18.37
2019-03-28T10:49:15.939Z,15.53
2019-03-28T10:53:20.970Z,13.57
2019-03-28T10:57:30.336Z,13.83
2019-03-28T11:01:47.606Z,14.83
2019-03-28T11:05:39.080Z,10.63
2019-03-28T11:09:43.974Z,7.53
2019-03-28T11:13:48.874Z,4.07
2019-03-28T11:17:53.765Z,3.13
2019-03-28T11:21:58.659Z,3.47
2019-03-28T11:26:03.554Z,2.67
2019-03-28T11:30:08.991Z,2.07
2019-03-28T11:34:14.666Z,4.73
2019-03-28T11:38:19.751Z,3.97
2019-03-28T11:42:24.654Z,7.23
2019-03-28T11:46:30.625Z,4.53
2019-03-28T11:50:35.528Z,3.43
2019-03-28T11:54:40.425Z,5.27
2019-03-28T11:58:45.324Z,5.23
2019-03-28T12:02:50.223Z,5.53
2019-03-28T12:06:55.122Z,7.97
2019-03-28T12:11:00.024Z,6.87
2019-03-28T12:15:07.070Z,8.47
2019-03-28T12:19:11.964Z,9.90
2019-03-28T12:23:16.852Z,7.97
2019-03-28T12:27:21.756Z,8.13
2019-03-28T12:31:26.646Z,9.10
2019-03-28T12:35:31.543Z,13.57
2019-03-28T12:39:36.470Z,11.50
2019-03-28T12:43:41.360Z,12.27
2019-03-28T12:47:46.274Z,7.47
2019-03-28T12:51:51.177Z,8.37
2019-03-28T12:55:56.088Z,13.47
2019-03-28T13:00:01.003Z,13.97
2019-03-28T13:04:05.899Z,12.70
2019-03-28T13:08:10.787Z,9.33
2019-03-28T13:12:15.690Z,10.90
2019-03-28T13:16:20.604Z,13.33
2019-03-28T13:20:25.509Z,8.77
2019-03-28T13:24:30.408Z,9.73
2019-03-28T13:28:35.298Z,8.57
2019-03-28T13:32:42.458Z,11.20
2019-03-28T13:36:47.581Z,7.50
2019-03-28T13:40:52.485Z,11.17
2019-03-28T13:44:57.388Z,8.00
2019-03-28T13:49:02.318Z,10.33
2019-03-28T13:53:07.214Z,22.23
2019-03-28T13:57:12.121Z,9.30
2019-03-28T14:01:17.020Z,7.53
2019-03-28T14:05:21.925Z,8.30
2019-03-28T14:09:26.836Z,10.60
2019-03-28T14:13:31.726Z,7.83
2019-03-28T14:17:36.637Z,9.47
2019-03-28T14:21:41.541Z,10.40
2019-03-28T14:25:46.482Z,8.87
2019-03-28T14:29:51.372Z,10.70
2019-03-28T14:33:56.257Z,9.17
2019-03-28T14:38:01.155Z,6.93
2019-03-28T14:42:06.055Z,5.60
2019-03-28T14:46:10.947Z,7.97
2019-03-28T14:50:18.913Z,9.13
2019-03-28T14:54:23.863Z,8.50
2019-03-28T14:58:29.537Z,11.77
2019-03-28T15:02:34.444Z,8.63
2019-03-28T15:06:39.336Z,8.27
2019-03-28T15:10:44.237Z,8.37
2019-03-28T15:14:49.139Z,8.57
2019-03-28T15:18:54.031Z,10.30
2019-03-28T15:22:58.934Z,8.67
2019-03-28T15:27:03.883Z,7.97
2019-03-28T15:31:09.867Z,8.80
2019-03-28T15:35:14.771Z,9.17
2019-03-28T15:39:19.662Z,8.23
2019-03-28T15:43:24.556Z,9.33
2019-03-28T15:47:29.460Z,8.40
2019-03-28T15:51:34.360Z,11.53
2019-03-28T15:55:39.270Z,8.90
2019-03-28T15:59:45.132Z,9.87
2019-03-28T16:03:53.167Z,10.13
2019-03-28T16:07:59.179Z,10.30
2019-03-28T16:12:03.307Z,9.50
2019-03-28T16:16:08.213Z,14.83
2019-03-28T16:20:13.568Z,7.20
2019-03-28T16:24:18.446Z,7.60
2019-03-28T16:28:23.351Z,6.57
2019-03-28T16:32:28.257Z,10.27
2019-03-28T16:36:33.161Z,11.93
2019-03-28T16:40:38.078Z,10.23
2019-03-28T16:44:42.964Z,11.50
2019-03-28T16:48:47.860Z,6.50
2019-03-28T16:52:52.772Z,7.50
2019-03-28T16:56:57.674Z,6.10
2019-03-28T17:01:02.615Z,6.27
2019-03-28T17:05:09.009Z,5.73
2019-03-28T17:09:13.912Z,11.17
2019-03-28T17:13:19.086Z,7.17
2019-03-28T17:17:23.991Z,6.37
2019-03-28T17:21:28.879Z,6.73
2019-03-28T17:25:33.773Z,8.83
2019-03-28T17:29:39.647Z,4.70
2019-03-28T17:33:44.545Z,8.00
2019-03-28T17:37:49.441Z,9.17
2019-03-28T17:41:54.354Z,9.07
2019-03-28T17:45:59.266Z,10.90
2019-03-28T17:50:06.393Z,5.33
2019-03-28T17:54:11.977Z,7.83
2019-03-28T17:58:17.091Z,6.07
2019-03-28T18:02:21.996Z,9.50
2019-03-28T18:06:26.890Z,9.93
2019-03-28T18:10:31.776Z,11.50
2019-03-28T18:14:36.682Z,14.33
2019-03-28T18:18:41.585Z,13.13
2019-03-28T18:22:46.503Z,14.93
2019-03-28T18:26:51.892Z,14.20
2019-03-28T18:30:56.966Z,13.47
2019-03-28T18:35:05.787Z,13.27
2019-03-28T18:39:08.478Z,14.97
2019-03-28T18:43:13.385Z,11.87
2019-03-28T18:47:18.297Z,16.03
2019-03-28T18:51:23.187Z,13.47
2019-03-28T18:55:28.100Z,15.13
2019-03-28T18:59:33.003Z,14.97
2019-03-28T19:03:37.910Z,12.57
2019-03-28T19:07:42.814Z,10.07
2019-03-28T19:11:47.717Z,15.20
2019-03-28T19:15:52.612Z,11.40
2019-03-28T19:19:59.546Z,9.53
2019-03-28T19:24:04.109Z,10.90
2019-03-28T19:28:09.010Z,8.80
2019-03-28T19:32:13.905Z,8.33
2019-03-28T19:36:18.934Z,14.03
2019-03-28T19:40:23.834Z,12.70
2019-03-28T19:44:29.810Z,13.27
2019-03-28T19:48:35.685Z,12.90
2019-03-28T19:52:40.586Z,10.33
2019-03-28T19:56:46.649Z,11.23
2019-03-28T20:00:51.804Z,9.27
2019-03-28T20:04:56.702Z,9.63
2019-03-28T20:09:15.399Z,11.90
2019-03-28T20:13:08.385Z,10.90
2019-03-28T20:17:13.289Z,10.30
2019-03-28T20:21:19.243Z,9.27
2019-03-28T20:25:24.148Z,13.53
2019-03-28T20:29:29.050Z,11.03
2019-03-28T20:33:33.957Z,11.33
2019-03-28T20:37:38.922Z,11.80
2019-03-28T20:41:43.818Z,13.17
2019-03-28T20:45:48.722Z,9.00
2019-03-28T20:49:53.627Z,12.33
2019-03-28T20:53:58.524Z,9.83
2019-03-28T20:58:03.422Z,10.60
2019-03-28T21:02:08.319Z,11.23
2019-03-28T21:06:15.483Z,10.83
2019-03-28T21:10:25.896Z,10.43
2019-03-28T21:14:30.810Z,8.60
2019-03-28T21:18:35.699Z,9.17
2019-03-28T21:22:40.600Z,13.23
2019-03-28T21:26:45.495Z,14.13
2019-03-28T21:30:50.400Z,11.97
2019-03-28T21:34:56.612Z,10.93
2019-03-28T21:39:01.686Z,14.63
2019-03-28T21:43:07.256Z,17.30
2019-03-28T21:47:12.151Z,11.10
2019-03-28T21:51:17.045Z,11.83
2019-03-28T21:55:21.947Z,15.57
2019-03-28T21:59:26.837Z,13.73
2019-03-28T22:03:31.734Z,11.43
2019-03-28T22:07:36.622Z,10.43
2019-03-28T22:11:41.521Z,12.70
2019-03-28T22:15:46.423Z,12.67
2019-03-28T22:19:51.806Z,12.77
2019-03-28T22:23:56.900Z,10.67
2019-03-28T22:28:01.797Z,12.60
2019-03-28T22:32:06.688Z,12.40
2019-03-28T22:36:11.581Z,12.77
2019-03-28T22:40:16.644Z,9.50
2019-03-28T22:44:21.539Z,11.43
2019-03-28T22:48:26.433Z,15.60
2019-03-28T22:52:31.322Z,9.13
2019-03-28T22:56:36.291Z,12.43
2019-03-28T23:00:45.906Z,11.40
2019-03-28T23:04:52.399Z,12.67
2019-03-28T23:08:57.311Z,14.30
2019-03-28T23:13:02.192Z,13.67
2019-03-28T23:17:07.087Z,11.73
2019-03-28T23:21:11.982Z,12.57
2019-03-28T23:25:16.877Z,14.00
2019-03-28T23:29:21.795Z,10.30
2019-03-28T23:33:26.696Z,14.40
2019-03-28T23:37:31.581Z,10.27
2019-03-28T23:41:36.556Z,11.47
2019-03-28T23:45:41.456Z,11.30
2019-03-28T23:49:46.353Z,12.70
2019-03-28T23:53:51.263Z,9.17
2019-03-28T23:57:56.129Z,10.73
